createdAt,value
2019-03-21T00:02:02.042Z,70.04
2019-03-21T00:04:55.788Z,67.89
2019-03-21T00:07:46.607Z,67.94
2019-03-21T00:11:21.190Z,65.62
2019-03-21T00:14:20.653Z,61.97
2019-03-21T00:17:11.498Z,65.37
2019-03-21T00:20:02.040Z,67.85
2019-03-21T00:22:52.946Z,64.42
2019-03-21T00:25:43.835Z,60.29
2019-03-21T00:28:34.646Z,59.58
2019-03-21T00:31:26.409Z,59.69
2019-03-21T00:34:17.042Z,60.86
2019-03-21T00:37:08.004Z,62.78
2019-03-21T00:39:58.881Z,64.41
2019-03-21T00:42:49.751Z,65.66
2019-03-21T00:45:40.886Z,65.30
2019-03-21T00:48:31.693Z,63.23
2019-03-21T00:51:22.745Z,64.54
2019-03-21T00:54:13.739Z,62.21
2019-03-21T00:57:04.732Z,54.31
2019-03-21T00:59:55.462Z,54.90
2019-03-21T01:02:46.797Z,52.47
2019-03-21T01:05:37.640Z,54.26
2019-03-21T01:08:28.454Z,52.75
2019-03-21T01:11:19.206Z,53.04
2019-03-21T01:14:10.065Z,57.16
2019-03-21T01:17:00.663Z,52.83
2019-03-21T01:19:51.332Z,51.14
2019-03-21T01:22:42.089Z,53.80
2019-03-21T01:25:36.137Z,51.13
2019-03-21T01:28:26.750Z,51.53
2019-03-21T01:31:17.547Z,50.48
2019-03-21T01:34:08.458Z,53.89
2019-03-21T01:36:59.133Z,52.07
2019-03-21T01:39:49.968Z,49.73
2019-03-21T01:42:41.142Z,50.32
2019-03-21T01:45:32.237Z,49.84
2019-03-21T01:48:23.041Z,49.24
2019-03-21T01:51:13.826Z,50.83
2019-03-21T01:54:04.609Z,52.99
2019-03-21T01:56:55.388Z,53.07
2019-03-21T01:59:46.175Z,54.35
2019-03-21T02:02:36.959Z,50.48
2019-03-21T02:05:28.165Z,52.06
2019-03-21T02:08:19.763Z,52.37
2019-03-21T02:11:10.543Z,54.78
2019-03-21T02:14:01.512Z,55.30
2019-03-21T02:16:52.933Z,54.52
2019-03-21T02:19:44.191Z,53.59
2019-03-21T02:22:34.922Z,51.75
2019-03-21T02:25:27.876Z,53.02
2019-03-21T02:28:18.499Z,52.26
2019-03-21T02:31:09.291Z,53.83
2019-03-21T02:34:00.273Z,54.27
2019-03-21T02:36:51.288Z,54.57
2019-03-21T02:39:43.346Z,59.13
2019-03-21T02:42:34.086Z,58.12
2019-03-21T02:45:24.698Z,57.44
2019-03-21T02:48:16.567Z,57.39
2019-03-21T02:51:07.966Z,56.48
2019-03-21T02:53:59.539Z,58.94
2019-03-21T02:56:50.513Z,58.49
2019-03-21T02:59:41.108Z,56.56
2019-03-21T03:02:31.948Z,59.24
2019-03-21T03:05:24.426Z,59.87
2019-03-21T03:08:15.350Z,64.58
2019-03-21T03:11:10.566Z,64.82
2019-03-21T03:13:59.912Z,64.12
2019-03-21T03:16:51.442Z,64.12
2019-03-21T03:19:42.353Z,63.52
2019-03-21T03:22:32.893Z,65.72
2019-03-21T03:25:23.636Z,67.20
2019-03-21T03:28:17.020Z,67.46
2019-03-21T03:31:07.719Z,66.43
2019-03-21T03:33:58.340Z,64.77
2019-03-21T03:36:49.258Z,62.78
2019-03-21T03:39:40.071Z,60.04
2019-03-21T03:42:31.066Z,60.41
2019-03-21T03:45:36.757Z,60.13
2019-03-21T03:48:19.720Z,60.41
2019-03-21T03:51:09.090Z,56.69
2019-03-21T03:54:00.212Z,56.76
2019-03-21T03:56:50.995Z,56.54
2019-03-21T03:59:41.907Z,55.86
2019-03-21T04:02:32.588Z,54.94
2019-03-21T04:05:23.562Z,56.77
2019-03-21T04:08:14.452Z,56.11
2019-03-21T04:11:05.466Z,57.78
2019-03-21T04:13:56.376Z,56.69
2019-03-21T04:16:47.314Z,57.28
2019-03-21T04:19:38.059Z,57.87
2019-03-21T04:22:28.851Z,60.78
2019-03-21T04:25:22.375Z,62.58
2019-03-21T04:28:16.725Z,65.37
2019-03-21T04:31:08.493Z,59.87
2019-03-21T04:34:01.451Z,61.37
2019-03-21T04:36:52.438Z,61.73
2019-03-21T04:39:43.234Z,60.53
2019-03-21T04:42:34.079Z,57.46
2019-03-21T04:45:24.876Z,58.96
2019-03-21T04:48:16.496Z,58.03
2019-03-21T04:51:08.282Z,51.25
2019-03-21T04:54:00.407Z,54.05
2019-03-21T04:56:50.999Z,53.24
2019-03-21T04:59:42.690Z,52.37
2019-03-21T05:02:33.619Z,53.20
2019-03-21T05:05:24.429Z,52.17
2019-03-21T05:08:15.318Z,50.85
2019-03-21T05:11:06.401Z,50.46
2019-03-21T05:13:56.953Z,50.15
2019-03-21T05:16:47.507Z,51.47
2019-03-21T05:19:38.289Z,47.81
2019-03-21T05:22:29.557Z,48.89
2019-03-21T05:25:20.590Z,48.53
2019-03-21T05:28:11.327Z,50.87
2019-03-21T05:31:28.926Z,48.02
2019-03-21T05:34:19.341Z,47.39
2019-03-21T05:37:10.160Z,47.54
2019-03-21T05:40:00.897Z,48.88
2019-03-21T05:42:58.601Z,47.49
2019-03-21T05:45:49.469Z,48.59
2019-03-21T05:48:42.126Z,45.28
2019-03-21T05:51:32.869Z,45.82
2019-03-21T05:54:23.713Z,45.18
2019-03-21T05:57:14.182Z,44.60
2019-03-21T06:00:06.636Z,43.85
2019-03-21T06:02:57.537Z,43.77
2019-03-21T06:05:54.917Z,44.53
2019-03-21T06:08:45.336Z,45.45
2019-03-21T06:11:36.561Z,44.86
2019-03-21T06:14:27.858Z,43.22
2019-03-21T06:17:18.727Z,41.40
2019-03-21T06:20:36.191Z,40.93
2019-03-21T06:23:48.392Z,39.49
2019-03-21T06:27:13.956Z,39.35
2019-03-21T06:29:57.573Z,38.26
2019-03-21T06:32:49.464Z,37.74
2019-03-21T06:35:40.122Z,39.23
2019-03-21T06:38:30.973Z,39.88
2019-03-21T06:41:22.413Z,40.51
2019-03-21T06:44:13.487Z,38.40
2019-03-21T06:47:04.206Z,38.23
2019-03-21T06:49:54.939Z,39.53
2019-03-21T06:52:46.006Z,37.89
2019-03-21T06:55:36.598Z,37.17
2019-03-21T06:58:27.346Z,36.90
2019-03-21T07:01:18.100Z,40.01
2019-03-21T07:04:10.342Z,38.45
2019-03-21T07:07:07.982Z,36.63
2019-03-21T07:09:53.655Z,36.25
2019-03-21T07:12:45.034Z,35.09
2019-03-21T07:15:36.061Z,33.12
2019-03-21T07:18:27.941Z,35.89
2019-03-21T07:21:18.870Z,38.36
2019-03-21T07:24:09.706Z,37.70
2019-03-21T07:27:00.647Z,38.11
2019-03-21T07:29:52.161Z,40.46
2019-03-21T07:32:42.886Z,39.37
2019-03-21T07:35:34.674Z,35.44
2019-03-21T07:38:25.952Z,34.25
2019-03-21T07:41:17.465Z,33.16
2019-03-21T07:44:08.848Z,32.31
2019-03-21T07:47:11.726Z,31.82
2019-03-21T07:49:53.139Z,31.84
2019-03-21T07:52:44.590Z,29.22
2019-03-21T07:55:35.984Z,28.78
2019-03-21T07:58:27.442Z,29.39
2019-03-21T08:01:19.166Z,29.71
2019-03-21T08:04:10.682Z,29.80
2019-03-21T08:07:02.083Z,28.41
2019-03-21T08:09:53.611Z,28.99
2019-03-21T08:12:45.494Z,28.36
2019-03-21T08:15:37.992Z,28.55
2019-03-21T08:18:29.833Z,29.71
2019-03-21T08:21:21.270Z,31.36
2019-03-21T08:24:12.052Z,33.53
2019-03-21T08:27:02.913Z,35.12
2019-03-21T08:29:53.746Z,36.17
2019-03-21T08:32:44.511Z,36.00
2019-03-21T08:35:35.287Z,36.23
2019-03-21T08:38:26.000Z,36.89
2019-03-21T08:41:17.058Z,39.72
2019-03-21T08:44:07.955Z,38.97
2019-03-21T08:46:58.807Z,38.60
2019-03-21T08:49:49.652Z,37.95
2019-03-21T08:52:40.576Z,40.79
2019-03-21T08:55:31.463Z,38.59
2019-03-21T08:58:22.283Z,42.91
2019-03-21T09:01:13.130Z,41.26
2019-03-21T09:04:03.930Z,40.42
2019-03-21T09:06:55.004Z,41.89
2019-03-21T09:09:45.772Z,42.14
2019-03-21T09:12:36.630Z,43.18
2019-03-21T09:15:27.419Z,41.59
2019-03-21T09:18:18.138Z,37.16
2019-03-21T09:21:19.157Z,37.93
2019-03-21T09:24:01.095Z,38.90
2019-03-21T09:26:52.429Z,39.18
2019-03-21T09:29:53.092Z,41.37
2019-03-21T09:32:36.487Z,40.06
2019-03-21T09:35:27.372Z,41.34
2019-03-21T09:38:20.269Z,44.49
2019-03-21T09:41:11.081Z,41.97
2019-03-21T09:44:02.139Z,43.37
2019-03-21T09:46:53.124Z,45.53
2019-03-21T09:49:43.777Z,45.57
2019-03-21T09:52:34.650Z,43.78
2019-03-21T09:55:25.583Z,46.37
2019-03-21T09:58:16.353Z,45.85
2019-03-21T10:01:07.294Z,46.22
2019-03-21T10:03:58.140Z,44.21
2019-03-21T10:06:49.162Z,46.50
2019-03-21T10:09:40.085Z,46.05
2019-03-21T10:12:30.849Z,46.37
2019-03-21T10:15:21.465Z,47.74
2019-03-21T10:18:11.973Z,46.18
2019-03-21T10:21:02.547Z,45.07
2019-03-21T10:23:53.324Z,44.46
2019-03-21T10:26:44.125Z,47.62
2019-03-21T10:29:35.292Z,45.56
2019-03-21T10:32:26.114Z,45.80
2019-03-21T10:35:16.737Z,47.24
2019-03-21T10:38:07.996Z,47.74
2019-03-21T10:40:58.615Z,47.17
2019-03-21T10:43:49.445Z,49.60
2019-03-21T10:46:40.586Z,47.45
2019-03-21T10:49:31.524Z,46.85
2019-03-21T10:52:22.514Z,47.67
2019-03-21T10:55:13.450Z,44.24
2019-03-21T10:58:04.805Z,44.94
2019-03-21T11:00:55.650Z,47.00
2019-03-21T11:03:46.141Z,45.76
2019-03-21T11:06:36.954Z,47.31
2019-03-21T11:09:27.769Z,48.28
2019-03-21T11:12:18.658Z,46.63
2019-03-21T11:15:09.217Z,47.68
2019-03-21T11:17:59.994Z,47.91
2019-03-21T11:20:50.820Z,48.61
2019-03-21T11:23:41.796Z,49.25
2019-03-21T11:26:32.693Z,48.28
2019-03-21T11:29:23.483Z,47.53
2019-03-21T11:32:14.310Z,47.86
2019-03-21T11:35:05.398Z,47.48
2019-03-21T11:37:56.348Z,48.21
2019-03-21T11:40:48.392Z,48.45
2019-03-21T11:43:39.473Z,49.25
2019-03-21T11:46:29.996Z,48.58
2019-03-21T11:49:20.743Z,51.89
2019-03-21T11:52:18.101Z,49.85
2019-03-21T11:55:03.878Z,50.37
2019-03-21T11:57:54.665Z,52.14
2019-03-21T12:00:45.610Z,50.80
2019-03-21T12:03:36.416Z,54.30
2019-03-21T12:06:27.331Z,50.75
2019-03-21T12:09:18.200Z,51.36
2019-03-21T12:12:08.788Z,50.83
2019-03-21T12:14:59.785Z,51.18
2019-03-21T12:17:50.753Z,52.54
2019-03-21T12:20:41.659Z,51.49
2019-03-21T12:23:32.853Z,50.30
2019-03-21T12:26:23.927Z,51.31
2019-03-21T12:29:15.743Z,52.62
2019-03-21T12:32:06.810Z,53.01
2019-03-21T12:34:57.688Z,52.08
2019-03-21T12:37:48.436Z,54.05
2019-03-21T12:40:39.415Z,53.78
2019-03-21T12:43:30.186Z,53.90
2019-03-21T12:46:20.858Z,54.21
2019-03-21T12:49:11.857Z,55.95
2019-03-21T12:52:02.574Z,55.84
2019-03-21T12:54:53.443Z,53.70
2019-03-21T12:57:44.334Z,54.89
2019-03-21T13:00:42.778Z,53.36
2019-03-21T13:03:33.667Z,56.59
2019-03-21T13:06:24.409Z,56.72
2019-03-21T13:09:15.265Z,55.44
2019-03-21T13:12:06.081Z,55.61
2019-03-21T13:14:57.336Z,56.88
2019-03-21T13:17:48.217Z,56.32
2019-03-21T13:20:39.553Z,56.39
2019-03-21T13:23:30.542Z,56.72
2019-03-21T13:26:21.378Z,55.49
2019-03-21T13:29:12.211Z,56.63
2019-03-21T13:32:03.003Z,54.25
2019-03-21T13:34:54.066Z,55.78
2019-03-21T13:37:45.467Z,55.74
2019-03-21T13:40:36.224Z,56.44
2019-03-21T13:43:26.902Z,55.43
2019-03-21T13:46:17.424Z,56.58
2019-03-21T13:49:08.214Z,57.99
2019-03-21T13:51:59.074Z,55.03
2019-03-21T13:54:49.986Z,59.42
2019-03-21T13:57:40.799Z,57.86
2019-03-21T14:00:31.420Z,55.55
2019-03-21T14:03:25.244Z,55.65
2019-03-21T14:06:14.514Z,55.16
2019-03-21T14:09:06.515Z,56.08
2019-03-21T14:11:57.387Z,55.68
2019-03-21T14:14:48.023Z,54.95
2019-03-21T14:17:38.712Z,55.66
2019-03-21T14:20:29.625Z,56.66
2019-03-21T14:23:20.376Z,55.61
2019-03-21T14:26:11.174Z,55.99
2019-03-21T14:29:12.270Z,55.27
2019-03-21T14:31:54.600Z,53.72
2019-03-21T14:34:45.605Z,54.79
2019-03-21T14:37:36.572Z,56.04
2019-03-21T14:40:27.285Z,54.21
2019-03-21T14:43:18.138Z,53.99
2019-03-21T14:46:08.990Z,54.08
2019-03-21T14:48:59.776Z,51.91
2019-03-21T14:51:50.718Z,53.09
2019-03-21T14:54:41.518Z,54.63
2019-03-21T14:57:32.539Z,54.28
2019-03-21T15:00:23.088Z,53.07
2019-03-21T15:03:13.893Z,62.06
2019-03-21T15:06:04.743Z,62.64
2019-03-21T15:08:55.734Z,63.19
2019-03-21T15:11:46.829Z,62.80
2019-03-21T15:14:37.997Z,63.68
2019-03-21T15:17:28.937Z,64.21
2019-03-21T15:20:19.964Z,62.00
2019-03-21T15:23:10.801Z,61.07
2019-03-21T15:26:01.766Z,62.75
2019-03-21T15:28:52.588Z,62.39
2019-03-21T15:31:43.433Z,64.79
2019-03-21T15:34:34.304Z,65.18
2019-03-21T15:37:25.250Z,65.29
2019-03-21T15:40:16.052Z,64.94
2019-03-21T15:43:06.910Z,65.16
2019-03-21T15:45:57.690Z,65.71
2019-03-21T15:48:48.588Z,68.16
2019-03-21T15:51:39.306Z,69.87
2019-03-21T15:54:29.860Z,70.60
2019-03-21T15:57:20.774Z,69.76
2019-03-21T16:00:12.159Z,70.10
2019-03-21T16:03:04.537Z,68.94
2019-03-21T16:05:55.639Z,67.56
2019-03-21T16:08:46.623Z,68.02
2019-03-21T16:11:37.702Z,68.76
2019-03-21T16:14:28.677Z,68.91
2019-03-21T16:17:19.777Z,69.38
2019-03-21T16:20:10.227Z,70.09
2019-03-21T16:23:01.144Z,70.42
2019-03-21T16:25:51.626Z,70.89
2019-03-21T16:28:42.553Z,71.06
2019-03-21T16:31:34.083Z,71.77
2019-03-21T16:34:25.721Z,72.08
2019-03-21T16:37:16.292Z,72.07
2019-03-21T16:40:08.008Z,72.88
2019-03-21T16:42:58.543Z,73.52
2019-03-21T16:45:49.421Z,73.96
2019-03-21T16:48:40.307Z,74.25
2019-03-21T16:51:31.223Z,74.21
2019-03-21T16:54:22.095Z,74.45
2019-03-21T16:57:13.183Z,74.15
2019-03-21T17:00:04.191Z,74.12
2019-03-21T17:02:55.524Z,74.07
2019-03-21T17:05:46.387Z,74.36
2019-03-21T17:08:37.281Z,73.83
2019-03-21T17:11:28.106Z,74.04
2019-03-21T17:14:19.362Z,74.02
2019-03-21T17:17:09.995Z,73.46
2019-03-21T17:20:03.754Z,73.17
2019-03-21T17:22:53.391Z,72.80
2019-03-21T17:25:45.236Z,72.82
2019-03-21T17:28:35.963Z,72.81
2019-03-21T17:31:26.695Z,72.72
2019-03-21T17:34:17.468Z,72.97
2019-03-21T17:37:08.083Z,73.56
2019-03-21T17:39:58.947Z,74.29
2019-03-21T17:42:49.918Z,74.14
2019-03-21T17:45:40.705Z,74.15
2019-03-21T17:48:31.818Z,74.36
2019-03-21T17:51:23.832Z,75.74
2019-03-21T17:54:15.196Z,76.50
2019-03-21T17:57:05.999Z,76.65
2019-03-21T17:59:57.658Z,77.07
2019-03-21T18:02:48.264Z,79.89
2019-03-21T18:05:39.564Z,81.73
2019-03-21T18:08:30.392Z,82.58
2019-03-21T18:11:21.286Z,81.86
2019-03-21T18:14:12.162Z,82.34
2019-03-21T18:17:02.954Z,82.71
2019-03-21T18:19:53.722Z,81.02
2019-03-21T18:22:45.825Z,81.35
2019-03-21T18:25:36.690Z,81.51
2019-03-21T18:28:27.738Z,81.16
2019-03-21T18:31:18.446Z,80.67
2019-03-21T18:34:09.491Z,81.10
2019-03-21T18:37:00.211Z,80.26
2019-03-21T18:39:51.004Z,80.22
2019-03-21T18:42:41.813Z,80.06
2019-03-21T18:45:32.942Z,81.24
2019-03-21T18:48:23.842Z,82.62
2019-03-21T18:51:14.811Z,83.26
2019-03-21T18:54:05.644Z,84.99
2019-03-21T18:56:56.438Z,86.08
2019-03-21T18:59:47.238Z,87.70
2019-03-21T19:02:37.817Z,90.01
2019-03-21T19:05:28.562Z,95.06
2019-03-21T19:08:19.425Z,96.36
2019-03-21T19:11:10.179Z,96.25
2019-03-21T19:14:00.898Z,94.41
2019-03-21T19:16:51.629Z,93.85
2019-03-21T19:19:42.625Z,92.49
2019-03-21T19:22:33.471Z,91.83
2019-03-21T19:25:24.736Z,91.29
2019-03-21T19:28:15.428Z,90.48
2019-03-21T19:31:06.851Z,90.10
2019-03-21T19:33:57.634Z,89.46
2019-03-21T19:36:48.830Z,91.97
2019-03-21T19:39:39.700Z,92.03
2019-03-21T19:42:30.630Z,92.96
2019-03-21T19:45:21.196Z,94.59
2019-03-21T19:48:12.497Z,95.20
2019-03-21T19:51:03.045Z,94.92
2019-03-21T19:53:53.934Z,96.79
2019-03-21T19:56:44.625Z,99.43
2019-03-21T19:59:35.525Z,99.34
2019-03-21T20:02:27.088Z,97.94
2019-03-21T20:05:17.690Z,96.86
2019-03-21T20:08:08.571Z,96.69
2019-03-21T20:10:59.842Z,97.05
2019-03-21T20:13:50.718Z,96.47
2019-03-21T20:16:41.950Z,95.33
2019-03-21T20:19:33.544Z,95.42
2019-03-21T20:22:24.772Z,95.40
2019-03-21T20:25:15.638Z,94.75
2019-03-21T20:28:06.596Z,95.21
2019-03-21T20:30:57.410Z,95.91
2019-03-21T20:33:48.627Z,95.82
2019-03-21T20:36:39.632Z,96.55
2019-03-21T20:39:30.619Z,96.16
2019-03-21T20:42:21.402Z,95.80
2019-03-21T20:45:13.235Z,97.11
2019-03-21T20:48:03.763Z,98.11
2019-03-21T20:50:54.767Z,97.04
2019-03-21T20:53:45.613Z,98.42
2019-03-21T20:56:37.821Z,99.92
2019-03-21T20:59:28.628Z,99.96
2019-03-21T21:02:19.648Z,99.40
2019-03-21T21:05:10.628Z,100.00
2019-03-21T21:08:01.488Z,100.00
2019-03-21T21:10:52.381Z,100.00
2019-03-21T21:13:43.393Z,100.00
2019-03-21T21:16:34.361Z,100.00
2019-03-21T21:19:25.514Z,100.00
2019-03-21T21:22:16.164Z,100.00
2019-03-21T21:25:07.771Z,99.45
2019-03-21T21:27:59.338Z,99.54
2019-03-21T21:30:50.239Z,99.77
2019-03-21T21:33:41.105Z,100.00
2019-03-21T21:36:31.949Z,100.00
2019-03-21T21:39:22.716Z,100.00
2019-03-21T21:42:14.563Z,100.00
2019-03-21T21:45:08.377Z,100.00
2019-03-21T21:48:02.435Z,100.00
2019-03-21T21:50:53.165Z,100.00
2019-03-21T21:53:45.079Z,100.00
2019-03-21T21:56:35.826Z,100.00
2019-03-21T21:59:26.756Z,100.00
2019-03-21T22:02:17.568Z,100.00
2019-03-21T22:05:08.470Z,100.00
2019-03-21T22:07:59.415Z,100.00
2019-03-21T22:10:50.280Z,100.00
2019-03-21T22:13:41.084Z,100.00
2019-03-21T22:16:32.051Z,100.00
2019-03-21T22:19:22.896Z,100.00
2019-03-21T22:22:15.257Z,100.00
2019-03-21T22:25:07.341Z,100.00
2019-03-21T22:27:57.948Z,100.00
2019-03-21T22:30:48.736Z,100.00
2019-03-21T22:33:39.737Z,100.00
2019-03-21T22:36:30.394Z,100.00
2019-03-21T22:39:21.202Z,100.00
2019-03-21T22:42:11.812Z,100.00
2019-03-21T22:45:02.565Z,100.00
2019-03-21T22:47:53.423Z,100.00
2019-03-21T22:50:44.332Z,100.00
2019-03-21T22:53:35.146Z,100.00
2019-03-21T22:56:26.156Z,100.00
2019-03-21T22:59:17.031Z,100.00
2019-03-21T23:02:08.082Z,100.00
2019-03-21T23:04:58.801Z,100.00
2019-03-21T23:07:49.846Z,100.00
2019-03-21T23:10:40.549Z,100.00
2019-03-21T23:13:31.875Z,100.00
2019-03-21T23:16:22.575Z,100.00
2019-03-21T23:19:14.708Z,100.00
2019-03-21T23:22:05.618Z,100.00
2019-03-21T23:24:56.667Z,99.03
2019-03-21T23:27:47.703Z,98.76
2019-03-21T23:30:38.484Z,99.42
2019-03-21T23:33:29.181Z,100.00
2019-03-21T23:36:20.071Z,100.00
2019-03-21T23:39:10.889Z,100.00
2019-03-21T23:42:01.768Z,100.00
2019-03-21T23:44:52.360Z,100.00
2019-03-21T23:47:44.296Z,99.37
2019-03-21T23:50:35.051Z,98.55
2019-03-21T23:53:25.903Z,97.11
2019-03-21T23:56:16.676Z,94.60
2019-03-21T23:59:07.576Z,94.49
